createdAt,value
2018-10-05T00:01:01.605Z,96725.20
2018-10-05T00:03:31.566Z,96726.05
2018-10-05T00:06:01.580Z,96730.81
2018-10-05T00:12:08.090Z,96729.15
2018-10-05T00:14:37.940Z,96728.22
2018-10-05T00:17:07.812Z,96734.77
2018-10-05T00:19:37.685Z,96726.45
2018-10-05T00:22:07.724Z,96714.47
2018-10-05T00:24:37.710Z,96714.12
2018-10-05T00:27:08.242Z,96711.39
2018-10-05T00:29:38.120Z,96704.02
2018-10-05T00:32:08.108Z,96705.16
2018-10-05T00:34:38.177Z,96702.48
2018-10-05T00:37:08.300Z,96706.45
2018-10-05T00:39:38.246Z,96701.73
2018-10-05T00:42:08.432Z,96697.46
2018-10-05T00:44:38.500Z,96699.23
2018-10-05T00:47:09.355Z,96697.81
2018-10-05T00:49:39.388Z,96695.00
2018-10-05T00:52:09.341Z,96699.09
2018-10-05T00:54:39.275Z,96690.77
2018-10-05T00:57:09.224Z,96699.03
2018-10-05T00:59:39.142Z,96690.98
2018-10-05T01:02:09.096Z,96696.81
2018-10-05T01:04:39.245Z,96694.93
2018-10-05T01:07:09.092Z,96691.24
2018-10-05T01:09:39.078Z,96687.36
2018-10-05T01:12:08.946Z,96689.83
2018-10-05T01:14:39.312Z,96681.98
2018-10-05T01:17:09.203Z,96683.34
2018-10-05T01:19:39.202Z,96686.70
2018-10-05T01:22:09.016Z,96680.81
2018-10-05T01:24:38.901Z,96686.24
2018-10-05T01:27:09.300Z,96686.69
2018-10-05T01:29:39.138Z,96679.58
2018-10-05T01:32:09.172Z,96676.72
2018-10-05T01:34:39.120Z,96682.30
2018-10-05T01:37:10.061Z,96682.87
2018-10-05T01:39:40.068Z,96680.52
2018-10-05T01:42:09.901Z,96681.29
2018-10-05T01:44:39.834Z,96678.56
2018-10-05T01:47:09.997Z,96676.72
2018-10-05T01:49:39.968Z,96677.03
2018-10-05T01:52:09.989Z,96676.94
2018-10-05T01:54:39.844Z,96671.65
2018-10-05T01:57:10.063Z,96675.52
2018-10-05T01:59:39.959Z,96677.42
2018-10-05T02:02:09.961Z,96669.36
2018-10-05T02:04:40.078Z,96676.48
2018-10-05T02:07:10.289Z,96677.84
2018-10-05T02:09:40.217Z,96678.14
2018-10-05T02:12:10.107Z,96673.52
2018-10-05T02:14:40.052Z,96671.65
2018-10-05T02:17:10.099Z,96667.77
2018-10-05T02:19:40.058Z,96668.16
2018-10-05T02:22:10.010Z,96672.45
2018-10-05T02:24:39.869Z,96670.63
2018-10-05T02:27:09.733Z,96677.80
2018-10-05T02:29:39.735Z,96677.05
2018-10-05T02:32:09.663Z,96669.90
2018-10-05T02:34:39.577Z,96660.09
2018-10-05T02:37:09.515Z,96663.18
2018-10-05T02:39:39.410Z,96656.23
2018-10-05T02:42:09.702Z,96655.03
2018-10-05T02:44:39.591Z,96647.41
2018-10-05T02:47:09.491Z,96649.00
2018-10-05T02:49:39.409Z,96647.41
2018-10-05T02:52:09.424Z,96641.22
2018-10-05T02:54:39.429Z,96637.98
2018-10-05T02:57:09.369Z,96638.77
2018-10-05T02:59:39.267Z,96631.56
2018-10-05T03:02:32.183Z,96630.95
2018-10-05T03:05:02.355Z,96630.39
2018-10-05T03:07:32.745Z,96627.19
2018-10-05T03:10:03.643Z,96626.17
2018-10-05T03:12:33.497Z,96629.09
2018-10-05T03:15:03.385Z,96628.69
2018-10-05T03:17:34.283Z,96627.64
2018-10-05T03:20:04.234Z,96625.00
2018-10-05T03:22:34.587Z,96619.65
2018-10-05T03:25:04.736Z,96622.37
2018-10-05T03:27:34.737Z,96625.30
2018-10-05T03:30:04.682Z,96625.16
2018-10-05T03:32:34.791Z,96622.95
2018-10-05T03:35:04.747Z,96622.21
2018-10-05T03:37:34.616Z,96625.16
2018-10-05T03:40:04.893Z,96628.67
2018-10-05T03:42:35.023Z,96632.11
2018-10-05T03:45:05.105Z,96630.73
2018-10-05T03:47:35.047Z,96623.22
2018-10-05T03:50:04.980Z,96617.72
2018-10-05T03:52:35.337Z,96614.91
2018-10-05T03:55:05.338Z,96614.34
2018-10-05T03:57:35.365Z,96617.23
2018-10-05T04:00:05.847Z,96613.92
2018-10-05T04:02:35.767Z,96613.09
2018-10-05T04:05:05.677Z,96612.48
2018-10-05T04:07:35.545Z,96610.48
2018-10-05T04:10:05.539Z,96603.40
2018-10-05T04:12:35.365Z,96607.84
2018-10-05T04:15:05.481Z,96606.83
2018-10-05T04:17:35.451Z,96604.48
2018-10-05T04:20:05.710Z,96602.75
2018-10-05T04:22:35.725Z,96601.87
2018-10-05T04:25:05.765Z,96605.02
2018-10-05T04:27:35.645Z,96604.42
2018-10-05T04:30:06.011Z,96600.08
2018-10-05T04:32:35.923Z,96597.62
2018-10-05T04:35:06.139Z,96601.09
2018-10-05T04:37:36.076Z,96597.25
2018-10-05T04:40:05.953Z,96592.61
2018-10-05T04:42:36.504Z,96596.23
2018-10-05T04:45:06.422Z,96596.23
2018-10-05T04:47:36.481Z,96597.66
2018-10-05T04:50:06.381Z,96596.08
2018-10-05T04:52:36.245Z,96595.93
2018-10-05T04:55:06.183Z,96594.37
2018-10-05T04:57:36.060Z,96596.88
2018-10-05T05:00:06.332Z,96593.48
2018-10-05T05:02:36.228Z,96597.21
2018-10-05T05:05:06.212Z,96594.57
2018-10-05T05:07:36.082Z,96584.80
2018-10-05T05:10:06.205Z,96589.45
2018-10-05T05:12:36.128Z,96579.52
2018-10-05T05:15:06.848Z,96587.59
2018-10-05T05:17:36.732Z,96584.42
2018-10-05T05:20:06.958Z,96592.46
2018-10-05T05:22:36.892Z,96595.23
2018-10-05T05:25:06.971Z,96589.84
2018-10-05T05:27:36.852Z,96592.06
2018-10-05T05:30:07.250Z,96595.27
2018-10-05T05:32:37.158Z,96594.80
2018-10-05T05:35:07.020Z,96601.06
2018-10-05T05:37:36.880Z,96604.64
2018-10-05T05:40:07.523Z,96596.04
2018-10-05T05:42:37.540Z,96599.06
2018-10-05T05:45:07.454Z,96600.87
2018-10-05T05:47:37.322Z,96610.83
2018-10-05T05:53:43.368Z,96613.88
2018-10-05T05:56:13.524Z,96621.52
2018-10-05T05:58:43.422Z,96624.64
2018-10-05T06:01:13.343Z,96620.26
2018-10-05T06:03:43.320Z,96623.97
2018-10-05T06:06:13.250Z,96616.47
2018-10-05T06:08:43.076Z,96617.52
2018-10-05T06:11:12.927Z,96625.30
2018-10-05T06:13:42.769Z,96621.50
2018-10-05T06:16:12.692Z,96624.95
2018-10-05T06:18:42.749Z,96626.47
2018-10-05T06:21:12.728Z,96624.36
2018-10-05T06:23:42.491Z,96629.21
2018-10-05T06:26:12.254Z,96624.06
2018-10-05T06:28:42.072Z,96619.61
2018-10-05T06:31:11.990Z,96620.53
2018-10-05T06:33:41.968Z,96619.06
2018-10-05T06:36:11.773Z,96623.61
2018-10-05T06:38:41.596Z,96618.66
2018-10-05T06:41:11.431Z,96623.95
2018-10-05T06:43:41.247Z,96631.53
2018-10-05T06:46:11.060Z,96629.20
2018-10-05T06:48:40.846Z,96628.75
2018-10-05T06:51:10.609Z,96625.80
2018-10-05T06:54:22.650Z,96629.09
2018-10-05T06:56:52.431Z,96629.58
2018-10-05T06:59:22.167Z,96628.56
2018-10-05T07:01:51.940Z,96630.78
2018-10-05T07:04:21.899Z,96633.01
2018-10-05T07:06:51.819Z,96633.20
2018-10-05T07:09:21.594Z,96636.07
2018-10-05T07:11:52.285Z,96626.64
2018-10-05T07:14:22.059Z,96633.95
2018-10-05T07:16:51.812Z,96635.87
2018-10-05T07:19:21.600Z,96639.67
2018-10-05T07:21:51.543Z,96641.42
2018-10-05T07:24:21.308Z,96643.31
2018-10-05T07:26:51.155Z,96630.67
2018-10-05T07:29:20.925Z,96631.81
2018-10-05T07:31:50.719Z,96626.64
2018-10-05T07:34:20.511Z,96626.02
2018-10-05T07:36:50.388Z,96625.69
2018-10-05T07:39:20.375Z,96627.68
2018-10-05T07:41:50.179Z,96625.29
2018-10-05T07:44:20.062Z,96629.55
2018-10-05T07:46:49.854Z,96628.53
2018-10-05T07:49:19.642Z,96631.41
2018-10-05T07:51:49.490Z,96629.30
2018-10-05T07:54:19.453Z,96635.44
2018-10-05T07:56:49.296Z,96623.98
2018-10-05T07:59:19.093Z,96626.56
2018-10-05T08:01:48.906Z,96624.19
2018-10-05T08:04:18.768Z,96616.75
2018-10-05T08:06:48.572Z,96623.39
2018-10-05T08:09:18.407Z,96625.20
2018-10-05T08:11:48.203Z,96622.30
2018-10-05T08:14:18.025Z,96611.88
2018-10-05T08:16:47.885Z,96617.13
2018-10-05T08:19:17.722Z,96608.20
2018-10-05T08:21:47.502Z,96618.98
2018-10-05T08:24:17.357Z,96607.53
2018-10-05T08:26:47.193Z,96608.45
2018-10-05T08:29:16.977Z,96607.66
2018-10-05T08:31:47.238Z,96608.81
2018-10-05T08:34:17.049Z,96600.11
2018-10-05T08:36:46.864Z,96608.98
2018-10-05T08:39:16.609Z,96606.92
2018-10-05T08:41:46.371Z,96604.45
2018-10-05T08:44:16.141Z,96599.79
2018-10-05T08:46:45.940Z,96591.02
2018-10-05T08:49:15.748Z,96591.79
2018-10-05T08:51:45.554Z,96584.44
2018-10-05T08:54:15.617Z,96581.31
2018-10-05T08:56:45.575Z,96580.17
2018-10-05T08:59:15.405Z,96579.03
2018-10-05T09:01:45.210Z,96581.55
2018-10-05T09:04:15.168Z,96580.38
2018-10-05T09:06:45.288Z,96578.41
2018-10-05T09:09:15.059Z,96577.98
2018-10-05T09:11:44.863Z,96578.74
2018-10-05T09:14:14.655Z,96571.75
2018-10-05T09:16:44.461Z,96562.72
2018-10-05T09:19:14.437Z,96561.56
2018-10-05T09:21:44.251Z,96555.47
2018-10-05T09:24:14.155Z,96556.19
2018-10-05T09:26:44.090Z,96546.85
2018-10-05T09:29:13.862Z,96547.95
2018-10-05T09:31:43.753Z,96542.02
2018-10-05T09:34:13.627Z,96543.98
2018-10-05T09:36:43.647Z,96539.02
2018-10-05T09:39:13.485Z,96532.52
2018-10-05T09:41:43.292Z,96537.00
2018-10-05T09:44:13.093Z,96530.31
2018-10-05T09:46:42.903Z,96537.97
2018-10-05T09:49:12.721Z,96526.45
2018-10-05T09:51:42.662Z,96525.21
2018-10-05T09:54:12.679Z,96522.36
2018-10-05T09:56:42.495Z,96503.88
2018-10-05T09:59:12.340Z,96502.31
2018-10-05T10:01:47.231Z,96495.16
2018-10-05T10:04:17.001Z,96498.16
2018-10-05T10:06:46.825Z,96499.41
2018-10-05T10:09:16.630Z,96493.59
2018-10-05T10:11:46.580Z,96490.64
2018-10-05T10:14:16.390Z,96489.86
2018-10-05T10:16:46.197Z,96491.72
2018-10-05T10:19:15.965Z,96486.92
2018-10-05T10:21:45.958Z,96485.77
2018-10-05T10:24:15.852Z,96487.33
2018-10-05T10:26:45.674Z,96485.80
2018-10-05T10:29:15.917Z,96478.66
2018-10-05T10:31:45.828Z,96480.72
2018-10-05T10:34:15.681Z,96473.70
2018-10-05T10:36:45.752Z,96464.18
2018-10-05T10:39:15.736Z,96459.52
2018-10-05T10:41:45.870Z,96454.84
2018-10-05T10:44:15.668Z,96453.59
2018-10-05T10:46:45.440Z,96452.17
2018-10-05T10:49:15.311Z,96451.12
2018-10-05T10:51:45.122Z,96448.13
2018-10-05T10:54:15.067Z,96449.57
2018-10-05T10:56:44.864Z,96446.11
2018-10-05T10:59:14.660Z,96442.91
2018-10-05T11:01:44.499Z,96439.83
2018-10-05T11:04:14.354Z,96437.80
2018-10-05T11:06:44.479Z,96429.91
2018-10-05T11:09:14.302Z,96423.10
2018-10-05T11:11:44.124Z,96417.38
2018-10-05T11:14:13.969Z,96416.54
2018-10-05T11:16:43.779Z,96413.36
2018-10-05T11:19:13.647Z,96410.90
2018-10-05T11:21:44.021Z,96407.39
2018-10-05T11:24:14.403Z,96402.16
2018-10-05T11:26:44.967Z,96400.64
2018-10-05T11:29:15.353Z,96388.17
2018-10-05T11:31:45.669Z,96386.73
2018-10-05T11:34:16.014Z,96387.61
2018-10-05T11:36:46.449Z,96381.78
2018-10-05T11:39:16.957Z,96379.06
2018-10-05T11:41:47.331Z,96370.81
2018-10-05T11:44:17.721Z,96367.40
2018-10-05T11:46:48.234Z,96360.78
2018-10-05T11:49:18.719Z,96360.12
2018-10-05T11:51:49.169Z,96348.91
2018-10-05T11:54:19.795Z,96349.73
2018-10-05T11:56:50.173Z,96348.83
2018-10-05T11:59:20.575Z,96335.18
2018-10-05T12:01:51.088Z,96329.56
2018-10-05T12:04:21.511Z,96328.82
2018-10-05T12:06:51.979Z,96326.45
2018-10-05T12:09:22.423Z,96319.05
2018-10-05T12:11:52.791Z,96321.86
2018-10-05T12:14:23.233Z,96315.38
2018-10-05T12:16:53.657Z,96317.71
2018-10-05T12:19:24.073Z,96312.92
2018-10-05T12:21:54.481Z,96314.02
2018-10-05T12:24:24.888Z,96312.28
2018-10-05T12:26:55.304Z,96308.56
2018-10-05T12:29:25.897Z,96299.10
2018-10-05T12:31:56.310Z,96295.47
2018-10-05T12:34:26.873Z,96293.93
2018-10-05T12:36:57.303Z,96292.55
2018-10-05T12:39:27.930Z,96279.00
2018-10-05T12:41:59.441Z,96281.58
2018-10-05T12:44:30.020Z,96273.53
2018-10-05T12:47:01.383Z,96272.70
2018-10-05T12:49:31.813Z,96266.53
2018-10-05T12:52:02.189Z,96261.11
2018-10-05T12:54:32.664Z,96263.84
2018-10-05T12:57:03.063Z,96266.16
2018-10-05T12:59:33.453Z,96261.45
2018-10-05T13:02:03.835Z,96259.20
2018-10-05T13:04:34.171Z,96260.80
2018-10-05T13:07:04.545Z,96256.91
2018-10-05T13:09:34.981Z,96261.12
2018-10-05T13:12:05.370Z,96253.84
2018-10-05T13:14:35.772Z,96254.78
2018-10-05T13:17:06.227Z,96250.81
2018-10-05T13:19:36.681Z,96247.88
2018-10-05T13:22:07.115Z,96245.27
2018-10-05T13:24:37.505Z,96240.51
2018-10-05T13:27:08.100Z,96239.34
2018-10-05T13:29:38.631Z,96247.83
2018-10-05T13:32:08.999Z,96241.81
2018-10-05T13:34:39.370Z,96254.36
2018-10-05T13:37:09.796Z,96249.52
2018-10-05T13:39:40.197Z,96246.30
2018-10-05T13:42:10.810Z,96243.17
2018-10-05T13:44:41.403Z,96242.84
2018-10-05T13:47:11.889Z,96240.97
2018-10-05T13:49:42.262Z,96235.83
2018-10-05T13:52:12.901Z,96228.12
2018-10-05T13:54:43.465Z,96220.21
2018-10-05T13:57:13.951Z,96225.77
2018-10-05T13:59:44.352Z,96220.05
2018-10-05T14:02:14.800Z,96220.78
2018-10-05T14:04:45.159Z,96213.72
2018-10-05T14:07:15.680Z,96216.42
2018-10-05T14:09:46.068Z,96215.40
2018-10-05T14:12:16.497Z,96217.50
2018-10-05T14:14:46.853Z,96209.00
2018-10-05T14:17:17.243Z,96207.08
2018-10-05T14:19:47.633Z,96209.66
2018-10-05T14:22:18.031Z,96204.60
2018-10-05T14:24:48.483Z,96201.50
2018-10-05T14:27:18.908Z,96203.44
2018-10-05T14:29:49.334Z,96198.08
2018-10-05T14:32:19.741Z,96198.63
2018-10-05T14:34:50.089Z,96202.53
2018-10-05T14:37:20.521Z,96203.83
2018-10-05T14:39:50.931Z,96197.91
2018-10-05T14:42:21.348Z,96196.98
2018-10-05T14:44:51.748Z,96192.79
2018-10-05T14:47:22.106Z,96196.95
2018-10-05T14:49:53.726Z,96186.08
2018-10-05T14:52:24.085Z,96180.56
2018-10-05T14:54:55.876Z,96182.55
2018-10-05T14:57:26.238Z,96177.48
2018-10-05T14:59:56.871Z,96167.48
2018-10-05T15:02:27.227Z,96167.78
2018-10-05T15:04:57.625Z,96165.59
2018-10-05T15:07:28.061Z,96168.45
2018-10-05T15:09:58.500Z,96160.53
2018-10-05T15:12:28.921Z,96151.27
2018-10-05T15:14:59.328Z,96151.63
2018-10-05T15:17:29.733Z,96144.22
2018-10-05T15:20:00.116Z,96144.23
2018-10-05T15:22:30.443Z,96146.28
2018-10-05T15:25:00.868Z,96141.17
2018-10-05T15:27:31.255Z,96135.74
2018-10-05T15:30:01.720Z,96135.12
2018-10-05T15:32:32.122Z,96133.05
2018-10-05T15:35:02.756Z,96127.44
2018-10-05T15:37:33.168Z,96129.09
2018-10-05T15:40:03.574Z,96126.47
2018-10-05T15:42:34.004Z,96128.15
2018-10-05T15:45:04.426Z,96125.95
2018-10-05T15:47:34.754Z,96126.33
2018-10-05T15:50:05.187Z,96123.56
2018-10-05T15:52:35.538Z,96114.63
2018-10-05T15:55:06.078Z,96109.53
2018-10-05T16:00:06.012Z,96113.88
2018-10-05T16:02:36.404Z,96119.97
2018-10-05T16:05:07.151Z,96114.95
2018-10-05T16:07:38.133Z,96120.75
2018-10-05T16:10:08.692Z,96120.19
2018-10-05T16:12:39.244Z,96121.16
2018-10-05T16:15:09.916Z,96124.59
2018-10-05T16:17:40.245Z,96125.73
2018-10-05T16:20:10.695Z,96120.87
2018-10-05T16:22:41.055Z,96123.42
2018-10-05T16:25:11.473Z,96117.93
2018-10-05T16:27:41.748Z,96118.81
2018-10-05T16:30:12.549Z,96122.91
2018-10-05T16:32:42.913Z,96124.55
2018-10-05T16:35:13.258Z,96122.20
2018-10-05T16:37:43.641Z,96127.05
2018-10-05T16:40:14.055Z,96122.67
2018-10-05T16:42:44.415Z,96125.06
2018-10-05T16:45:14.836Z,96121.84
2018-10-05T16:47:45.348Z,96117.07
2018-10-05T16:50:15.842Z,96112.73
2018-10-05T16:52:46.219Z,96113.10
2018-10-05T16:55:16.839Z,96115.81
2018-10-05T16:57:47.201Z,96121.70
2018-10-05T17:00:17.636Z,96116.76
2018-10-05T17:02:48.500Z,96120.47
2018-10-05T17:05:18.981Z,96125.09
2018-10-05T17:07:49.439Z,96112.97
2018-10-05T17:10:19.834Z,96124.17
2018-10-05T17:12:50.363Z,96118.67
2018-10-05T17:15:20.723Z,96121.03
2018-10-05T17:17:51.095Z,96124.39
2018-10-05T17:20:21.624Z,96130.25
2018-10-05T17:22:52.217Z,96120.80
2018-10-05T17:25:22.717Z,96125.94
2018-10-05T17:27:53.277Z,96125.94
2018-10-05T17:30:23.805Z,96119.05
2018-10-05T17:32:54.404Z,96118.79
2018-10-05T17:39:00.493Z,96114.24
2018-10-05T17:41:30.597Z,96115.28
2018-10-05T17:44:01.121Z,96109.59
2018-10-05T17:46:31.364Z,96121.97
2018-10-05T17:49:01.930Z,96115.25
2018-10-05T17:51:32.439Z,96115.91
2018-10-05T17:54:02.307Z,96120.23
2018-10-05T17:56:32.232Z,96121.66
2018-10-05T17:59:02.393Z,96118.77
2018-10-05T18:01:32.427Z,96119.99
2018-10-05T18:04:02.532Z,96119.91
2018-10-05T18:06:32.414Z,96124.00
2018-10-05T18:09:02.267Z,96127.03
2018-10-05T18:11:33.883Z,96132.66
2018-10-05T18:14:03.760Z,96130.65
2018-10-05T18:16:33.609Z,96125.11
2018-10-05T18:19:03.377Z,96126.45
2018-10-05T18:21:33.228Z,96123.22
2018-10-05T18:24:03.099Z,96127.24
2018-10-05T18:26:32.951Z,96125.48
2018-10-05T18:29:02.786Z,96122.10
2018-10-05T18:31:33.501Z,96126.46
2018-10-05T18:34:03.404Z,96119.49
2018-10-05T18:36:33.463Z,96114.19
2018-10-05T18:39:03.338Z,96117.64
2018-10-05T18:41:33.257Z,96126.85
2018-10-05T18:44:03.158Z,96123.51
2018-10-05T18:46:33.232Z,96123.61
2018-10-05T18:49:05.569Z,96125.55
2018-10-05T18:51:36.692Z,96117.69
2018-10-05T18:54:07.091Z,96114.39
2018-10-05T18:59:12.769Z,96119.65
2018-10-05T19:01:48.484Z,96128.66
2018-10-05T19:04:48.387Z,96126.84
2018-10-05T19:07:19.208Z,96125.42
2018-10-05T19:12:46.582Z,96128.31
2018-10-05T19:15:16.962Z,96129.98
2018-10-05T19:32:29.142Z,96130.13
2018-10-05T19:34:59.109Z,96123.23
2018-10-05T19:37:29.238Z,96119.59
2018-10-05T19:39:59.156Z,96118.92
2018-10-05T19:42:29.294Z,96123.86
2018-10-05T19:45:09.704Z,96124.51
2018-10-05T19:47:40.730Z,96125.50
2018-10-05T19:50:10.689Z,96125.22
2018-10-05T19:52:40.676Z,96121.59
2018-10-05T19:55:10.700Z,96118.30
2018-10-05T19:57:40.822Z,96125.24
2018-10-05T20:00:15.064Z,96128.22
2018-10-05T20:02:44.995Z,96126.25
2018-10-05T20:05:16.374Z,96118.06
2018-10-05T20:12:05.443Z,96121.39
2018-10-05T20:14:35.856Z,96123.55
2018-10-05T20:17:06.541Z,96120.50
2018-10-05T20:19:36.851Z,96116.63
2018-10-05T20:22:08.821Z,96120.44
2018-10-05T20:25:26.655Z,96127.43
2018-10-05T20:27:56.463Z,96125.05
2018-10-05T20:30:26.299Z,96124.36
2018-10-05T20:32:56.204Z,96127.80
2018-10-05T20:35:26.100Z,96126.80
2018-10-05T20:37:56.161Z,96130.27
2018-10-05T20:40:26.129Z,96128.54
2018-10-05T20:42:56.395Z,96130.30
2018-10-05T20:45:26.182Z,96133.73
2018-10-05T20:47:56.261Z,96135.56
2018-10-05T20:50:26.184Z,96133.60
2018-10-05T20:52:56.040Z,96131.57
2018-10-05T20:55:25.857Z,96131.47
2018-10-05T20:57:55.719Z,96124.59
2018-10-05T21:00:25.580Z,96130.85
2018-10-05T21:02:55.599Z,96130.42
2018-10-05T21:05:25.431Z,96127.15
2018-10-05T21:07:55.279Z,96128.16
2018-10-05T21:10:25.099Z,96124.91
2018-10-05T21:12:54.910Z,96125.75
2018-10-05T21:15:24.683Z,96120.84
2018-10-05T21:17:54.526Z,96118.80
2018-10-05T21:20:24.355Z,96124.98
2018-10-05T21:22:54.165Z,96128.05
2018-10-05T21:25:23.949Z,96127.61
2018-10-05T21:27:53.736Z,96124.70
2018-10-05T21:30:23.731Z,96120.03
2018-10-05T21:32:53.600Z,96123.11
2018-10-05T21:35:23.531Z,96123.39
2018-10-05T21:37:53.327Z,96121.85
2018-10-05T21:40:23.158Z,96125.62
2018-10-05T21:42:52.945Z,96119.78
2018-10-05T21:45:22.746Z,96125.62
2018-10-05T21:47:52.532Z,96121.09
2018-10-05T21:50:22.345Z,96121.96
2018-10-05T21:52:52.299Z,96115.92
2018-10-05T21:55:22.094Z,96124.97
2018-10-05T21:57:51.903Z,96119.44
2018-10-05T22:00:21.754Z,96116.81
2018-10-05T22:02:51.517Z,96121.94
2018-10-05T22:05:21.364Z,96118.55
2018-10-05T22:07:51.161Z,96111.85
2018-10-05T22:10:20.945Z,96110.34
2018-10-05T22:12:50.763Z,96108.02
2018-10-05T22:15:20.583Z,96107.82
2018-10-05T22:17:50.366Z,96104.52
2018-10-05T22:20:20.132Z,96101.34
2018-10-05T22:22:50.040Z,96096.67
2018-10-05T22:25:19.850Z,96098.05
2018-10-05T22:27:49.757Z,96101.61
2018-10-05T22:30:19.519Z,96099.47
2018-10-05T22:32:49.351Z,96097.97
2018-10-05T22:35:19.155Z,96107.72
2018-10-05T22:37:49.021Z,96110.00
2018-10-05T22:40:18.809Z,96109.83
2018-10-05T22:42:48.623Z,96110.78
2018-10-05T22:45:18.525Z,96105.55
2018-10-05T22:47:48.313Z,96102.30
2018-10-05T22:50:18.139Z,96103.69
2018-10-05T22:52:47.905Z,96096.97
2018-10-05T22:55:17.723Z,96105.22
2018-10-05T22:57:47.493Z,96098.06
2018-10-05T23:00:17.619Z,96099.73
2018-10-05T23:02:47.593Z,96094.46
2018-10-05T23:05:17.541Z,96098.37
2018-10-05T23:07:47.361Z,96099.83
2018-10-05T23:10:17.179Z,96103.61
2018-10-05T23:12:47.323Z,96096.00
2018-10-05T23:15:17.126Z,96088.72
2018-10-05T23:17:46.937Z,96085.27
2018-10-05T23:20:16.819Z,96086.87
2018-10-05T23:22:46.566Z,96084.41
2018-10-05T23:25:16.343Z,96078.58
2018-10-05T23:27:46.132Z,96078.59
2018-10-05T23:30:17.031Z,96082.70
2018-10-05T23:32:46.841Z,96082.33
2018-10-05T23:35:16.665Z,96082.48
2018-10-05T23:37:46.469Z,96089.61
2018-10-05T23:40:16.333Z,96093.69
2018-10-05T23:42:46.495Z,96099.59
2018-10-05T23:45:16.281Z,96099.21
2018-10-05T23:47:46.036Z,96091.04
2018-10-05T23:50:15.897Z,96087.37
2018-10-05T23:52:49.611Z,96091.27
2018-10-05T23:55:19.715Z,96090.12
2018-10-05T23:57:49.863Z,96099.08
